createdAt,value
2023-01-27T00:02:22.186Z,37.13
2023-01-27T00:04:52.480Z,34.50
2023-01-27T00:07:22.748Z,36.97
2023-01-27T00:09:53.057Z,31.33
2023-01-27T00:12:41.481Z,34.73
2023-01-27T00:15:13.745Z,37.13
2023-01-27T00:17:44.207Z,35.00
2023-01-27T00:20:35.581Z,33.10
2023-01-27T00:23:18.253Z,42.38
2023-01-27T00:25:58.407Z,38.50
2023-01-27T00:28:31.379Z,37.63
2023-01-27T00:31:02.691Z,39.00
2023-01-27T00:36:02.747Z,38.63
2023-01-27T00:38:34.841Z,35.47
2023-01-27T00:41:17.911Z,40.13
2023-01-27T00:43:52.322Z,37.43
2023-01-27T00:46:24.339Z,39.40
2023-01-27T00:48:55.705Z,38.63
2023-01-27T00:53:56.431Z,33.90
2023-01-27T00:56:28.293Z,30.20
2023-01-27T00:59:02.007Z,33.00
2023-01-27T01:01:34.097Z,38.10
2023-01-27T01:04:04.744Z,35.90
2023-01-27T01:06:35.261Z,37.45
2023-01-27T01:09:06.485Z,33.97
2023-01-27T01:11:36.795Z,37.17
2023-01-27T01:14:09.749Z,38.30
2023-01-27T01:16:40.052Z,36.90
2023-01-27T01:19:10.484Z,38.07
2023-01-27T01:21:41.162Z,44.47
2023-01-27T01:24:11.783Z,43.65
2023-01-27T01:26:42.178Z,41.00
2023-01-27T01:29:15.146Z,48.93
2023-01-27T01:31:45.429Z,45.00
2023-01-27T01:34:15.818Z,46.10
2023-01-27T01:36:47.419Z,51.10
2023-01-27T01:39:17.715Z,40.33
2023-01-27T01:41:48.116Z,37.30
2023-01-27T01:44:26.311Z,37.25
2023-01-27T01:46:56.800Z,41.50
2023-01-27T01:49:37.713Z,49.63
2023-01-27T01:52:13.407Z,40.17
2023-01-27T01:54:48.386Z,43.80
2023-01-27T01:57:24.581Z,35.30
2023-01-27T02:00:02.433Z,38.43
2023-01-27T02:02:33.462Z,37.33
2023-01-27T02:05:09.753Z,51.63
2023-01-27T02:07:47.266Z,35.93
2023-01-27T02:10:18.342Z,39.90
2023-01-27T02:12:49.239Z,39.07
2023-01-27T02:15:22.728Z,37.53
2023-01-27T02:17:53.430Z,35.03
2023-01-27T02:20:34.431Z,39.58
2023-01-27T02:23:14.513Z,39.47
2023-01-27T02:25:52.013Z,34.13
2023-01-27T02:28:22.379Z,36.37
2023-01-27T02:30:52.764Z,37.43
2023-01-27T02:33:23.128Z,34.33
2023-01-27T02:36:03.802Z,35.80
2023-01-27T02:38:39.331Z,30.50
2023-01-27T02:41:18.881Z,28.17
2023-01-27T02:43:54.418Z,29.60
2023-01-27T02:46:25.282Z,34.40
2023-01-27T02:48:56.384Z,31.17
2023-01-27T02:53:57.250Z,31.60
2023-01-27T02:56:30.355Z,28.38
2023-01-27T02:59:01.279Z,34.03
2023-01-27T03:01:41.944Z,32.10
2023-01-27T03:04:12.328Z,34.58
2023-01-27T03:06:42.902Z,31.53
2023-01-27T03:09:13.319Z,35.47
2023-01-27T03:11:58.686Z,35.30
2023-01-27T03:14:41.358Z,35.67
2023-01-27T03:17:24.113Z,34.63
2023-01-27T03:19:54.794Z,39.37
2023-01-27T03:22:26.320Z,38.97
2023-01-27T03:24:57.571Z,34.77
2023-01-27T03:27:31.483Z,35.40
2023-01-27T03:30:20.712Z,37.03
2023-01-27T03:33:00.083Z,38.33
2023-01-27T03:36:01.268Z,41.40
2023-01-27T03:38:44.531Z,42.27
2023-01-27T03:41:27.612Z,38.60
2023-01-27T03:44:13.267Z,34.80
2023-01-27T03:46:43.607Z,34.97
2023-01-27T03:49:13.905Z,31.73
2023-01-27T03:51:44.237Z,36.87
2023-01-27T03:54:14.507Z,37.50
2023-01-27T03:56:45.008Z,31.47
2023-01-27T03:59:18.361Z,34.50
2023-01-27T04:01:48.688Z,41.50
2023-01-27T04:04:31.355Z,40.17
2023-01-27T04:07:03.120Z,59.47
2023-01-27T04:09:36.120Z,49.57
2023-01-27T04:12:10.103Z,50.33
2023-01-27T04:14:44.764Z,51.23
2023-01-27T04:17:16.803Z,51.27
2023-01-27T04:19:48.816Z,49.13
2023-01-27T04:22:20.025Z,53.95
2023-01-27T04:27:21.133Z,54.40
2023-01-27T04:29:54.122Z,51.63
2023-01-27T04:32:24.445Z,50.07
2023-01-27T04:34:54.856Z,48.33
2023-01-27T04:37:25.184Z,51.80
2023-01-27T04:39:55.519Z,53.53
2023-01-27T04:42:25.828Z,43.73
2023-01-27T04:44:59.016Z,45.00
2023-01-27T04:47:29.313Z,44.43
2023-01-27T04:49:59.643Z,47.20
2023-01-27T04:52:29.946Z,38.80
2023-01-27T04:55:00.309Z,43.30
2023-01-27T04:57:30.667Z,43.70
2023-01-27T05:00:03.606Z,41.90
2023-01-27T05:02:33.965Z,49.17
2023-01-27T05:05:04.821Z,39.83
2023-01-27T05:07:35.743Z,39.97
2023-01-27T05:10:06.128Z,42.05
2023-01-27T05:12:36.651Z,44.07
2023-01-27T05:15:12.031Z,47.28
2023-01-27T05:17:42.478Z,44.27
2023-01-27T05:20:14.560Z,46.15
2023-01-27T05:22:44.977Z,52.77
2023-01-27T05:25:15.852Z,52.17
2023-01-27T05:27:46.510Z,50.28
2023-01-27T05:30:20.069Z,51.28
2023-01-27T05:32:50.557Z,55.87
2023-01-27T05:35:21.345Z,57.77
2023-01-27T05:37:51.719Z,62.10
2023-01-27T05:40:22.294Z,61.17
2023-01-27T05:42:54.719Z,56.50
2023-01-27T05:45:27.633Z,56.27
2023-01-27T05:47:58.147Z,58.70
2023-01-27T05:50:28.539Z,55.40
2023-01-27T05:52:58.830Z,52.37
2023-01-27T05:55:29.529Z,51.63
2023-01-27T05:58:02.426Z,51.75
2023-01-27T06:00:35.424Z,53.40
2023-01-27T06:03:05.814Z,47.70
2023-01-27T06:05:36.330Z,48.00
2023-01-27T06:08:07.227Z,51.77
2023-01-27T06:10:37.601Z,47.05
2023-01-27T06:13:08.165Z,50.23
2023-01-27T06:15:44.746Z,52.15
2023-01-27T06:18:16.094Z,51.10
2023-01-27T06:23:19.219Z,56.43
2023-01-27T06:25:51.950Z,51.70
2023-01-27T06:28:29.149Z,54.77
2023-01-27T06:31:09.267Z,61.13
2023-01-27T06:33:40.131Z,62.60
2023-01-27T06:36:14.784Z,59.87
2023-01-27T06:38:45.245Z,66.70
2023-01-27T06:41:15.689Z,76.33
2023-01-27T06:43:46.183Z,67.67
2023-01-27T06:46:19.512Z,67.80
2023-01-27T06:48:49.858Z,74.30
2023-01-27T06:51:20.167Z,66.50
2023-01-27T06:53:50.438Z,61.87
2023-01-27T06:56:20.773Z,64.30
2023-01-27T06:58:51.486Z,64.03
2023-01-27T07:01:24.688Z,69.93
2023-01-27T07:03:55.046Z,63.30
2023-01-27T07:06:25.311Z,68.27
2023-01-27T07:08:55.712Z,53.87
2023-01-27T07:11:26.321Z,50.87
2023-01-27T07:13:56.703Z,51.80
2023-01-27T07:16:29.724Z,48.17
2023-01-27T07:19:00.103Z,51.83
2023-01-27T07:21:30.423Z,42.07
2023-01-27T07:24:00.713Z,51.33
2023-01-27T07:26:31.154Z,43.63
2023-01-27T07:29:01.448Z,44.03
2023-01-27T07:31:36.429Z,39.83
2023-01-27T07:34:06.847Z,43.10
2023-01-27T07:36:37.068Z,39.40
2023-01-27T07:39:07.621Z,38.77
2023-01-27T07:41:37.928Z,35.03
2023-01-27T07:44:08.395Z,32.27
2023-01-27T07:46:41.474Z,29.27
2023-01-27T07:49:12.611Z,31.60
2023-01-27T07:51:42.963Z,31.75
2023-01-27T07:54:13.348Z,32.40
2023-01-27T07:56:43.627Z,30.73
2023-01-27T07:59:14.269Z,22.93
2023-01-27T08:01:48.398Z,29.25
2023-01-27T08:04:18.791Z,26.60
2023-01-27T08:06:49.177Z,28.70
2023-01-27T08:09:19.677Z,22.93
2023-01-27T08:11:50.041Z,23.35
2023-01-27T08:14:20.591Z,27.70
2023-01-27T08:16:53.591Z,20.87
2023-01-27T08:19:23.964Z,22.93
2023-01-27T08:21:54.213Z,22.07
2023-01-27T08:24:24.726Z,20.90
2023-01-27T08:26:55.104Z,19.80
2023-01-27T08:29:25.402Z,21.30
2023-01-27T08:31:58.319Z,22.97
2023-01-27T08:34:28.704Z,20.20
2023-01-27T08:36:59.021Z,20.43
2023-01-27T08:39:29.411Z,20.83
2023-01-27T08:41:59.910Z,22.77
2023-01-27T08:44:30.636Z,19.52
2023-01-27T08:47:03.685Z,20.25
2023-01-27T08:49:34.086Z,21.53
2023-01-27T08:52:04.390Z,22.23
2023-01-27T08:54:34.683Z,19.20
2023-01-27T08:57:04.964Z,22.50
2023-01-27T08:59:35.202Z,19.50
2023-01-27T09:02:08.149Z,24.33
2023-01-27T09:04:42.040Z,20.20
2023-01-27T09:07:12.505Z,27.23
2023-01-27T09:09:42.819Z,23.50
2023-01-27T09:12:13.238Z,24.00
2023-01-27T09:14:43.770Z,25.03
2023-01-27T09:17:19.754Z,24.13
2023-01-27T09:19:50.091Z,22.93
2023-01-27T09:22:20.433Z,23.40
2023-01-27T09:24:50.709Z,21.17
2023-01-27T09:27:37.116Z,25.93
2023-01-27T09:30:11.551Z,23.63
2023-01-27T09:32:45.399Z,26.53
2023-01-27T09:35:15.997Z,25.63
2023-01-27T09:37:50.862Z,22.35
2023-01-27T09:40:33.416Z,24.37
2023-01-27T09:43:29.397Z,27.17
2023-01-27T09:46:22.612Z,23.20
2023-01-27T09:49:28.588Z,21.00
2023-01-27T09:52:18.298Z,23.73
2023-01-27T09:55:03.489Z,21.63
2023-01-27T09:57:47.150Z,16.97
2023-01-27T10:00:33.683Z,18.27
2023-01-27T10:03:36.361Z,17.67
2023-01-27T10:06:34.791Z,16.43
2023-01-27T10:10:08.002Z,20.57
2023-01-27T10:13:00.576Z,19.53
2023-01-27T10:15:50.330Z,19.00
2023-01-27T10:18:42.541Z,21.97
2023-01-27T10:21:24.547Z,20.53
2023-01-27T10:24:06.136Z,20.43
2023-01-27T10:26:44.646Z,23.77
2023-01-27T10:29:24.130Z,24.47
2023-01-27T10:32:00.910Z,24.10
2023-01-27T10:34:38.160Z,21.37
2023-01-27T10:37:27.511Z,26.23
2023-01-27T10:40:06.313Z,27.67
2023-01-27T10:42:44.449Z,28.90
2023-01-27T10:45:29.131Z,29.10
2023-01-27T10:48:24.482Z,24.73
2023-01-27T10:51:02.157Z,24.50
2023-01-27T10:53:43.225Z,24.00
2023-01-27T10:56:24.816Z,23.92
2023-01-27T10:59:04.568Z,27.07
2023-01-27T11:01:40.387Z,24.67
2023-01-27T11:04:17.751Z,25.87
2023-01-27T11:06:50.365Z,24.97
2023-01-27T11:09:31.695Z,25.50
2023-01-27T11:12:07.737Z,35.10
2023-01-27T11:14:48.630Z,27.80
2023-01-27T11:17:28.761Z,27.23
2023-01-27T11:20:12.734Z,26.57
2023-01-27T11:22:58.744Z,22.30
2023-01-27T11:25:46.517Z,21.97
2023-01-27T11:28:31.451Z,25.90
2023-01-27T11:31:13.252Z,22.60
2023-01-27T11:33:58.226Z,23.77
2023-01-27T11:36:29.233Z,25.77
2023-01-27T11:39:01.716Z,24.88
2023-01-27T11:41:37.522Z,26.07
2023-01-27T11:44:15.979Z,21.90
2023-01-27T11:46:48.236Z,22.10
2023-01-27T11:49:24.336Z,28.43
2023-01-27T11:51:54.711Z,23.93
2023-01-27T11:54:28.766Z,22.83
2023-01-27T11:57:01.616Z,25.70
2023-01-27T11:59:37.950Z,22.63
2023-01-27T12:02:27.473Z,22.50
2023-01-27T12:05:06.382Z,20.60
2023-01-27T12:07:54.689Z,20.53
2023-01-27T12:10:31.367Z,19.10
2023-01-27T12:13:11.810Z,20.27
2023-01-27T12:15:55.958Z,21.97
2023-01-27T12:18:26.680Z,16.03
2023-01-27T12:21:03.821Z,20.75
2023-01-27T12:23:39.460Z,18.90
2023-01-27T12:26:12.839Z,14.97
2023-01-27T12:28:54.085Z,17.03
2023-01-27T12:31:30.597Z,15.43
2023-01-27T12:34:05.740Z,16.27
2023-01-27T12:36:43.184Z,17.47
2023-01-27T12:39:33.792Z,19.40
2023-01-27T12:42:04.114Z,21.40
2023-01-27T12:44:48.937Z,18.13
2023-01-27T12:47:28.196Z,19.87
2023-01-27T12:50:23.957Z,19.27
2023-01-27T12:53:07.617Z,20.23
2023-01-27T12:55:41.951Z,22.03
2023-01-27T12:58:34.144Z,16.13
2023-01-27T13:01:11.038Z,19.93
2023-01-27T13:03:45.794Z,16.90
2023-01-27T13:06:19.951Z,23.77
2023-01-27T13:08:53.509Z,19.17
2023-01-27T13:11:37.450Z,20.97
2023-01-27T13:14:13.269Z,19.03
2023-01-27T13:16:54.728Z,20.60
2023-01-27T13:22:08.165Z,16.45
2023-01-27T13:24:42.895Z,17.77
2023-01-27T13:27:19.150Z,21.47
2023-01-27T13:30:01.119Z,20.37
2023-01-27T13:32:39.378Z,24.97
2023-01-27T13:35:21.963Z,21.60
2023-01-27T13:38:03.781Z,20.97
2023-01-27T13:40:41.066Z,25.10
2023-01-27T13:43:17.003Z,23.47
2023-01-27T13:45:56.348Z,21.27
2023-01-27T13:48:37.908Z,20.23
2023-01-27T13:51:12.769Z,21.07
2023-01-27T13:53:43.696Z,19.47
2023-01-27T13:56:35.578Z,17.20
2023-01-27T13:59:22.930Z,18.03
2023-01-27T14:02:06.570Z,19.13
2023-01-27T14:05:14.148Z,19.43
2023-01-27T14:07:51.536Z,18.63
2023-01-27T14:10:29.902Z,18.47
2023-01-27T14:13:18.216Z,20.53
2023-01-27T14:15:55.829Z,17.70
2023-01-27T14:18:31.141Z,21.70
2023-01-27T14:21:34.875Z,20.43
2023-01-27T14:24:24.321Z,14.80
2023-01-27T14:27:04.799Z,16.30
2023-01-27T14:29:45.284Z,16.07
2023-01-27T14:32:29.177Z,19.13
2023-01-27T14:35:28.087Z,15.70
2023-01-27T14:38:13.839Z,13.03
2023-01-27T14:40:58.417Z,14.10
2023-01-27T14:43:39.568Z,12.50
2023-01-27T14:46:22.623Z,12.02
2023-01-27T14:49:09.508Z,14.00
2023-01-27T14:51:48.164Z,11.97
2023-01-27T14:54:39.063Z,15.07
2023-01-27T14:57:30.359Z,14.55
2023-01-27T15:00:31.645Z,13.63
2023-01-27T15:03:26.201Z,13.18
2023-01-27T15:06:05.781Z,12.70
2023-01-27T15:08:43.436Z,13.83
2023-01-27T15:11:51.927Z,15.17
2023-01-27T15:15:21.970Z,13.63
2023-01-27T15:18:19.781Z,13.93
2023-01-27T15:21:13.156Z,14.40
2023-01-27T15:24:19.022Z,13.93
2023-01-27T15:26:52.381Z,13.57
2023-01-27T15:29:29.124Z,12.90
2023-01-27T15:32:30.582Z,12.67
2023-01-27T15:35:34.935Z,13.57
2023-01-27T15:38:22.243Z,14.57
2023-01-27T15:41:14.793Z,13.90
2023-01-27T15:44:18.565Z,14.20
2023-01-27T15:46:51.259Z,14.77
2023-01-27T15:49:26.294Z,15.23
2023-01-27T15:51:59.939Z,13.00
2023-01-27T15:54:35.035Z,15.00
2023-01-27T15:57:09.085Z,14.43
2023-01-27T15:59:59.150Z,15.13
2023-01-27T16:02:32.178Z,17.50
2023-01-27T16:05:28.294Z,18.30
2023-01-27T16:08:03.877Z,18.93
2023-01-27T16:10:37.653Z,18.80
2023-01-27T16:13:27.251Z,18.30
2023-01-27T16:16:59.786Z,17.30
2023-01-27T16:19:34.338Z,16.83
2023-01-27T16:22:08.952Z,17.90
2023-01-27T16:24:45.757Z,17.63
2023-01-27T16:27:37.038Z,18.93
2023-01-27T16:30:21.647Z,20.35
2023-01-27T16:33:06.717Z,23.17
2023-01-27T16:35:46.765Z,20.73
2023-01-27T16:38:28.549Z,22.90
2023-01-27T16:41:03.655Z,20.87
2023-01-27T16:43:44.713Z,23.20
2023-01-27T16:46:33.030Z,22.63
2023-01-27T16:49:14.866Z,22.70
2023-01-27T16:51:46.141Z,24.03
2023-01-27T16:56:55.478Z,22.10
2023-01-27T16:59:30.236Z,23.30
2023-01-27T17:02:05.736Z,19.17
2023-01-27T17:04:38.864Z,21.00
2023-01-27T17:07:13.515Z,19.20
2023-01-27T17:09:46.359Z,23.57
2023-01-27T17:12:32.586Z,20.47
2023-01-27T17:15:05.286Z,19.73
2023-01-27T17:17:38.720Z,22.07
2023-01-27T17:20:24.304Z,19.50
2023-01-27T17:22:57.601Z,16.33
2023-01-27T17:25:36.487Z,21.77
2023-01-27T17:28:13.358Z,19.20
2023-01-27T17:30:47.000Z,19.83
2023-01-27T17:33:22.359Z,17.60
2023-01-27T17:35:58.215Z,16.47
2023-01-27T17:38:44.508Z,15.73
2023-01-27T17:41:41.788Z,17.90
2023-01-27T17:44:17.108Z,17.30
2023-01-27T17:46:47.612Z,16.07
2023-01-27T17:49:21.116Z,15.70
2023-01-27T17:51:57.694Z,15.00
2023-01-27T17:54:31.250Z,13.40
2023-01-27T17:57:08.037Z,14.87
2023-01-27T17:59:42.540Z,12.00
2023-01-27T18:02:24.159Z,12.43
2023-01-27T18:04:57.242Z,13.13
2023-01-27T18:07:30.557Z,10.47
2023-01-27T18:10:01.193Z,8.90
2023-01-27T18:12:37.375Z,11.15
2023-01-27T18:15:44.212Z,8.93
2023-01-27T18:18:27.137Z,8.13
2023-01-27T18:21:09.013Z,9.63
2023-01-27T18:23:48.181Z,8.87
2023-01-27T18:26:24.503Z,8.97
2023-01-27T18:28:58.311Z,7.80
2023-01-27T18:31:32.673Z,45.63
2023-01-27T18:34:15.551Z,14.63
2023-01-27T18:36:56.503Z,9.53
2023-01-27T18:39:36.880Z,12.13
2023-01-27T18:42:14.438Z,12.53
2023-01-27T18:44:45.433Z,11.70
2023-01-27T18:47:30.273Z,11.82
2023-01-27T18:50:05.439Z,12.17
2023-01-27T18:52:36.418Z,14.67
2023-01-27T18:55:18.621Z,13.10
2023-01-27T18:57:50.729Z,14.63
2023-01-27T19:00:24.090Z,14.93
2023-01-27T19:02:58.552Z,16.13
2023-01-27T19:05:31.943Z,14.03
2023-01-27T19:08:03.103Z,15.93
2023-01-27T19:10:37.707Z,13.40
2023-01-27T19:13:08.101Z,22.33
2023-01-27T19:15:41.948Z,17.93
2023-01-27T19:18:19.003Z,14.60
2023-01-27T19:20:49.398Z,17.40
2023-01-27T19:23:22.077Z,19.77
2023-01-27T19:25:57.648Z,17.80
2023-01-27T19:28:33.316Z,18.43
2023-01-27T19:31:03.751Z,20.90
2023-01-27T19:33:37.250Z,22.87
2023-01-27T19:36:23.724Z,21.53
2023-01-27T19:38:58.777Z,24.37
2023-01-27T19:41:32.123Z,50.83
2023-01-27T19:44:03.715Z,29.10
2023-01-27T19:46:36.438Z,23.80
2023-01-27T19:49:06.843Z,24.60
2023-01-27T19:51:38.083Z,23.97
2023-01-27T19:56:43.485Z,27.17
2023-01-27T19:59:15.973Z,27.97
2023-01-27T20:01:46.331Z,28.77
2023-01-27T20:04:16.764Z,27.50
2023-01-27T20:06:47.026Z,25.93
2023-01-27T20:09:17.296Z,28.43
2023-01-27T20:11:50.248Z,26.83
2023-01-27T20:14:25.954Z,26.27
2023-01-27T20:16:56.366Z,29.97
2023-01-27T20:19:26.888Z,28.03
2023-01-27T20:22:01.204Z,29.67
2023-01-27T20:24:31.457Z,31.30
2023-01-27T20:27:04.383Z,29.27
2023-01-27T20:29:35.579Z,31.03
2023-01-27T20:32:09.232Z,32.28
2023-01-27T20:34:40.583Z,32.33
2023-01-27T20:37:10.892Z,29.85
2023-01-27T20:39:41.173Z,31.23
2023-01-27T20:42:14.052Z,31.90
2023-01-27T20:44:44.372Z,39.27
2023-01-27T20:47:15.628Z,47.30
2023-01-27T20:52:17.012Z,31.90
2023-01-27T20:54:47.397Z,28.93
2023-01-27T20:57:22.141Z,31.43
2023-01-27T20:59:52.462Z,31.73
2023-01-27T21:02:22.981Z,31.97
2023-01-27T21:04:53.306Z,31.55
2023-01-27T21:07:24.045Z,34.07
2023-01-27T21:09:55.511Z,35.83
2023-01-27T21:12:29.538Z,35.37
2023-01-27T21:15:01.771Z,34.13
2023-01-27T21:17:32.072Z,41.10
2023-01-27T21:20:02.392Z,46.37
2023-01-27T21:22:34.540Z,37.67
2023-01-27T21:25:05.042Z,36.80
2023-01-27T21:27:37.969Z,35.10
2023-01-27T21:30:10.411Z,40.77
2023-01-27T21:32:40.914Z,36.53
2023-01-27T21:35:12.453Z,33.63
2023-01-27T21:37:43.095Z,33.13
2023-01-27T21:40:15.636Z,38.80
2023-01-27T21:43:00.977Z,32.53
2023-01-27T21:45:31.582Z,37.00
2023-01-27T21:48:01.938Z,35.55
2023-01-27T21:50:32.222Z,35.37
2023-01-27T21:53:02.561Z,32.33
2023-01-27T21:55:35.441Z,32.27
2023-01-27T21:58:08.415Z,32.90
2023-01-27T22:00:38.815Z,35.60
2023-01-27T22:03:09.176Z,31.57
2023-01-27T22:05:40.969Z,32.83
2023-01-27T22:08:11.814Z,31.77
2023-01-27T22:10:42.529Z,30.48
2023-01-27T22:13:15.478Z,33.50
2023-01-27T22:15:45.692Z,38.20
2023-01-27T22:18:16.052Z,29.43
2023-01-27T22:20:46.374Z,28.03
2023-01-27T22:23:19.027Z,30.60
2023-01-27T22:25:52.125Z,28.53
2023-01-27T22:28:26.661Z,30.40
2023-01-27T22:30:57.202Z,30.83
2023-01-27T22:33:27.709Z,25.80
2023-01-27T22:36:05.373Z,27.77
2023-01-27T22:38:40.307Z,28.93
2023-01-27T22:41:10.665Z,26.93
2023-01-27T22:43:43.635Z,27.60
2023-01-27T22:46:13.875Z,28.03
2023-01-27T22:48:44.466Z,25.03
2023-01-27T22:51:15.094Z,27.80
2023-01-27T22:53:45.534Z,28.58
2023-01-27T22:56:15.846Z,26.67
2023-01-27T22:58:48.814Z,26.63
2023-01-27T23:01:19.187Z,25.67
2023-01-27T23:03:49.571Z,26.47
2023-01-27T23:06:19.877Z,29.60
2023-01-27T23:08:50.238Z,23.10
2023-01-27T23:11:20.599Z,26.63
2023-01-27T23:13:54.145Z,26.30
2023-01-27T23:16:24.613Z,28.47
2023-01-27T23:18:55.129Z,25.00
2023-01-27T23:21:25.785Z,27.90
2023-01-27T23:23:56.263Z,27.85
2023-01-27T23:26:26.627Z,28.13
2023-01-27T23:28:59.512Z,26.50
2023-01-27T23:31:29.930Z,28.60
2023-01-27T23:34:00.287Z,26.20
2023-01-27T23:36:30.622Z,27.13
2023-01-27T23:39:00.993Z,27.07
2023-01-27T23:41:31.351Z,27.23
2023-01-27T23:44:04.293Z,27.27
2023-01-27T23:46:34.622Z,28.93
2023-01-27T23:49:04.985Z,29.53
2023-01-27T23:51:35.511Z,33.30
2023-01-27T23:54:06.209Z,25.13
2023-01-27T23:56:37.092Z,28.75
2023-01-27T23:59:10.115Z,28.75
